Verdon, Minnesota
Current Conditions -  °F | °C
As of 11:14 PM on Friday 19 Dec 2014 (Local Time) from KAIT Reporting Station
Haze Haze  
Wind Chill: -7°   Ceiling: 500
Heat Index: -2°   Visibility: 3mi
Dew Point: -4°   Wind: 9mph
Humidity: 86%   Direction: 160°SSE
Pressure: 30.08"   Gusts: NA
Location:  46.7281°N, 93.6101°W
Report Text: KAIT 200514Z AUTO 16008KT 3SM HZ OVC005 M02/M04 A3008 RMK AO2
Loading
Personal Weather Stations






























Interactive Weather Map New forecast layout! Learn more

10-Day Weather Forecast

Advertisements
Track Severe Weather on mobile